Flight Track Log - Related Links

Times and Time Zones

All times are in EST time to prevent confusion due to time zone crossing. See the N80PM flight status page for this flight to view local times or setup timezone preferences in your user account.

Time Position Orientation Groundspeed Altitude Reporting Facility
EST Latitude Longitude Course Direction KTS MPH feet Rate Location/Type
Fri 03:31:48 PM 26.6847 -81.8364 355° North 157 181 4,400  Level Miami Center
Fri 03:32:48 PM 26.7233 -81.8658 326° Northwest 173 199 5,700 1,350 Climbing Miami Center
Fri 03:33:48 PM 26.7597 -81.8953 324° Northwest 168 193 7,100 1,400 Climbing Miami Center
Fri 03:34:48 PM 26.8097 -81.9044 351° North 181 208 8,500 1,450 Climbing Miami Center
Fri 03:35:00 PM 26.9513 -81.8667 North  Level FlightAware Approximate
Fri 03:35:48 PM 26.8575 -81.9089 355° North 174 200 10,000  Level Miami Center
Fri 03:36:00 PM 27.0128 -81.8679 355° North  Level FlightAware Approximate
Fri 03:36:48 PM 26.9075 -81.9133 355° North 180 207 11,500  Level Miami Center
Fri 03:37:48 PM 26.9572 -81.9203 353° North 180 207 13,400 1,700 Climbing Miami Center
Fri 03:38:48 PM 27.0072 -81.9247 355° North 175 201 14,900 1,450 Climbing Miami Center
Fri 03:39:48 PM 27.0572 -81.9292 355° North 180 207 16,300 1,150 Climbing Miami Center
Fri 03:40:48 PM 27.1153 -81.9342 356° North 185 213 17,200 1,300 Climbing Miami Center
Fri 03:41:48 PM 27.1736 -81.9389 356° North 197 227 18,900 1,400 Climbing Miami Center
Fri 03:42:48 PM 27.2258 -81.9436 355° North 192 221 20,000 1,150 Climbing Miami Center
Fri 03:43:48 PM 27.2797 -81.9483 356° North 192 221 21,200 1,100 Climbing Miami Center
Fri 03:44:48 PM 27.3256 -81.9528 355° North 192 221 22,200 900 Climbing Miami Center
Fri 03:45:48 PM 27.3858 -81.9600 354° North 192 221 23,000 750 Climbing Miami Center
Fri 03:46:48 PM 27.4400 -81.9647 356° North 192 221 23,700 600 Climbing Miami Center
Fri 03:47:48 PM 27.4961 -81.9694 356° North 197 227 24,200 600 Climbing Miami Center
Fri 03:48:48 PM 27.5481 -81.9742 355° North 202 232 24,900 600 Climbing Miami Center
Fri 03:49:48 PM 27.6064 -81.9769 358° North 202 232 25,400 500 Climbing Miami Center
Fri 03:50:48 PM 27.6689 -81.9842 354° North 202 232 25,900 300 Climbing Miami Center
Fri 03:51:48 PM 27.7292 -81.9894 356° North 207 238 26,000 50 Climbing Miami Center
Fri 03:52:48 PM 27.7914 -81.9969 354° North 221 254 26,000  Level Miami Center
Fri 03:54:30 PM 27.8986 -82.0050 356° North 240 276 26,000  Level Jacksonville Center
Fri 03:55:30 PM 27.9611 -82.0114 355° North 233 268 26,000  Level Jacksonville Center
Fri 03:56:30 PM 28.0136 -82.0322 341° North 219 252 26,000  Level Jacksonville Center
Fri 03:57:30 PM 28.0617 -82.0622 331° Northwest 204 235 26,000  Level Jacksonville Center
Fri 03:58:30 PM 28.1119 -82.0925 332° Northwest 198 228 26,000  Level Jacksonville Center
Fri 03:59:30 PM 28.1603 -82.1250 329° Northwest 198 228 26,000  Level Jacksonville Center
Fri 04:00:30 PM 28.2083 -82.1553 331° Northwest 198 228 26,000  Level Jacksonville Center
Fri 04:01:30 PM 28.2564 -82.1833 333° Northwest 198 228 26,000  Level Jacksonville Center
Fri 04:02:30 PM 28.3047 -82.2136 331° Northwest 198 228 26,000  Level Jacksonville Center
Fri 04:03:30 PM 28.3508 -82.2439 330° Northwest 198 228 26,000  Level Jacksonville Center
Fri 04:04:30 PM 28.3967 -82.2744 330° Northwest 198 228 26,000  Level Jacksonville Center
Fri 04:05:30 PM 28.4469 -82.3047 332° Northwest 198 228 26,000  Level Jacksonville Center
Fri 04:06:30 PM 28.4931 -82.3353 330° Northwest 198 228 26,000  Level Jacksonville Center
Fri 04:07:30 PM 28.5392 -82.3656 330° Northwest 198 228 26,000  Level Jacksonville Center
Fri 04:08:30 PM 28.5831 -82.3936 331° Northwest 187 215 26,000  Level Jacksonville Center
Fri 04:09:30 PM 28.6414 -82.4053 350° North 195 224 26,000  Level Jacksonville Center
Fri 04:10:30 PM 28.7103 -82.4025 North 208 239 26,000  Level Jacksonville Center
Fri 04:11:30 PM 28.7731 -82.4094 354° North 219 252 26,000  Level Jacksonville Center
Fri 04:12:30 PM 28.8336 -82.4186 352° North 219 252 26,000  Level Jacksonville Center
Fri 04:13:30 PM 28.8961 -82.4253 355° North 219 252 26,000  Level Jacksonville Center
Fri 04:14:30 PM 28.9547 -82.4322 354° North 219 252 26,000  Level Jacksonville Center
Fri 04:15:30 PM 29.0172 -82.4392 354° North 219 252 26,000  Level Jacksonville Center
Fri 04:16:30 PM 29.0778 -82.4483 352° North 219 252 26,000  Level Jacksonville Center
Fri 04:17:30 PM 29.1383 -82.4528 356° North 219 252 26,000  Level Jacksonville Center
Fri 04:18:30 PM 29.2011 -82.4619 353° North 219 252 26,000  Level Jacksonville Center
Fri 04:19:30 PM 29.2492 -82.4856 337° Northwest 206 237 26,000  Level Jacksonville Center
Fri 04:20:30 PM 29.2931 -82.5139 331° Northwest 190 219 26,000  Level Jacksonville Center
Fri 04:21:30 PM 29.3392 -82.5425 332° Northwest 185 213 26,000  Level Jacksonville Center
Fri 04:22:30 PM 29.3831 -82.5708 331° Northwest 185 213 26,000  Level Jacksonville Center
Fri 04:23:30 PM 29.4269 -82.5992 331° Northwest 185 213 26,000  Level Jacksonville Center
Fri 04:24:30 PM 29.4728 -82.6278 331° Northwest 185 213 26,000  Level Jacksonville Center
Fri 04:25:30 PM 29.5147 -82.6539 332° Northwest 190 219 26,000  Level Jacksonville Center
Fri 04:26:30 PM 29.5628 -82.6847 331° Northwest 195 224 26,000  Level Jacksonville Center
Fri 04:27:30 PM 29.6044 -82.7133 329° Northwest 190 219 26,000  Level Jacksonville Center
Fri 04:28:30 PM 29.6506 -82.7419 332° Northwest 184 212 26,000  Level Jacksonville Center
Fri 04:29:30 PM 29.6964 -82.7706 332° Northwest 184 212 26,000  Level Jacksonville Center
Fri 04:30:30 PM 29.7425 -82.7992 332° Northwest 189 217 26,000  Level Jacksonville Center
Fri 04:31:30 PM 29.7883 -82.8303 329° Northwest 189 217 26,000  Level Jacksonville Center
Fri 04:32:30 PM 29.8364 -82.8592 332° Northwest 189 217 26,000  Level Jacksonville Center
Fri 04:33:30 PM 29.8822 -82.8903 330° Northwest 189 217 26,000  Level Jacksonville Center
Fri 04:34:30 PM 29.9283 -82.9189 332° Northwest 189 217 26,000  Level Jacksonville Center
Fri 04:35:30 PM 29.9742 -82.9478 331° Northwest 189 217 26,000  Level Jacksonville Center
Fri 04:36:30 PM 30.0200 -82.9767 331° Northwest 189 217 26,000  Level Jacksonville Center
Fri 04:37:30 PM 30.0661 -83.0053 332° Northwest 189 217 26,000  Level Jacksonville Center
Fri 04:38:30 PM 30.1139 -83.0342 332° Northwest 189 217 26,000  Level Jacksonville Center
Fri 04:39:30 PM 30.1600 -83.0656 330° Northwest 189 217 26,000  Level Jacksonville Center
Fri 04:40:30 PM 30.2058 -83.0944 331° Northwest 189 217 26,000  Level Jacksonville Center
Fri 04:41:30 PM 30.2539 -83.1233 333° Northwest 189 217 26,000  Level Jacksonville Center
Fri 04:42:30 PM 30.2997 -83.1547 329° Northwest 189 217 26,000  Level Jacksonville Center
Fri 04:43:30 PM 30.3475 -83.1839 332° Northwest 189 217 26,000  Level Jacksonville Center
Fri 04:44:30 PM 30.3933 -83.2153 329° Northwest 189 217 26,000  Level Jacksonville Center
Fri 04:45:30 PM 30.4414 -83.2444 332° Northwest 189 217 26,000  Level Jacksonville Center
Fri 04:46:30 PM 30.4853 -83.2758 328° Northwest 189 217 26,000  Level Jacksonville Center
Fri 04:47:30 PM 30.5331 -83.3050 332° Northwest 189 217 26,000  Level Jacksonville Center
Fri 04:48:30 PM 30.5789 -83.3342 331° Northwest 189 217 26,000  Level Jacksonville Center
Fri 04:49:30 PM 30.6228 -83.3658 328° Northwest 189 217 26,000  Level Jacksonville Center
Fri 04:50:30 PM 30.6686 -83.3925 333° Northwest 189 217 26,000  Level Jacksonville Center
Fri 04:51:30 PM 30.7144 -83.4242 329° Northwest 189 217 26,000  Level Jacksonville Center
Fri 04:52:30 PM 30.7622 -83.4533 332° Northwest 189 217 26,000  Level Jacksonville Center
Fri 04:53:30 PM 30.8081 -83.4828 331° Northwest 189 217 26,000  Level Jacksonville Center
Fri 04:54:30 PM 30.8558 -83.5169 328° Northwest 189 217 26,000  Level Jacksonville Center
Fri 04:55:30 PM 30.8994 -83.5464 330° Northwest 189 217 26,000  Level Jacksonville Center
Fri 04:56:30 PM 30.9453 -83.5781 329° Northwest 189 217 26,000  Level Jacksonville Center
Fri 04:57:30 PM 30.9911 -83.6075 331° Northwest 189 217 26,000  Level Jacksonville Center
Fri 04:58:30 PM 31.0369 -83.6344 333° Northwest 189 217 26,000  Level Jacksonville Center
Fri 04:59:30 PM 31.0786 -83.6639 329° Northwest 189 217 26,000  Level Jacksonville Center
Fri 05:00:30 PM 31.1242 -83.6933 331° Northwest 189 217 26,000  Level Jacksonville Center
Fri 05:01:30 PM 31.1700 -83.7231 331° Northwest 189 217 26,000  Level Jacksonville Center
Fri 05:02:30 PM 31.2158 -83.7550 329° Northwest 189 217 26,000  Level Jacksonville Center
Fri 05:05:30 PM 31.3542 -83.8467 331° Northwest 183 211 26,000  Level Atlanta Center
Fri 05:06:30 PM 31.3981 -83.8783 328° Northwest 183 211 26,000  Level Atlanta Center
Fri 05:07:30 PM 31.4461 -83.9097 331° Northwest 194 223 26,000  Level Atlanta Center
Fri 05:08:30 PM 31.4919 -83.9392 331° Northwest 194 223 26,000  Level Atlanta Center
Fri 05:09:30 PM 31.5442 -83.9658 336° Northwest 194 223 26,000  Level Atlanta Center
Fri 05:10:30 PM 31.6067 -83.9756 352° North 235 270 26,000  Level Atlanta Center
Fri 05:11:30 PM 31.6694 -83.9900 349° North 241 277 26,000  Level Atlanta Center
Fri 05:12:30 PM 31.7258 -84.0094 344° North 236 272 26,000  Level Atlanta Center
Fri 05:13:30 PM 31.7883 -84.0119 358° North 236 272 26,000  Level Atlanta Center
Fri 05:14:30 PM 31.8531 -84.0267 349° North 236 272 26,000  Level Atlanta Center
Fri 05:15:30 PM 31.9156 -84.0389 351° North 236 272 26,000  Level Atlanta Center
Fri 05:16:30 PM 31.9761 -84.0511 350° North 231 266 26,000  Level Atlanta Center
Fri 05:17:30 PM 32.0389 -84.0633 351° North 231 266 26,000  Level Atlanta Center
Fri 05:18:30 PM 32.1014 -84.0781 349° North 225 259 26,000  Level Atlanta Center
Fri 05:19:30 PM 32.1619 -84.0903 350° North 219 252 26,000  Level Atlanta Center
Fri 05:20:30 PM 32.2244 -84.1028 350° North 219 252 26,000  Level Atlanta Center
Fri 05:21:30 PM 32.2850 -84.1150 350° North 219 252 26,000  Level Atlanta Center
Fri 05:22:30 PM 32.3436 -84.1272 350° North 219 252 26,000  Level Atlanta Center
Fri 05:23:30 PM 32.4042 -84.1397 350° North 219 252 26,000  Level Atlanta Center
Fri 05:24:30 PM 32.4667 -84.1544 349° North 219 252 26,000  Level Atlanta Center
Fri 05:25:30 PM 32.5250 -84.1669 350° North 219 252 26,000  Level Atlanta Center
Fri 05:26:30 PM 32.5878 -84.1769 352° North 219 252 26,000  Level Atlanta Center
Fri 05:27:30 PM 32.6442 -84.1892 350° North 219 252 26,000  Level Atlanta Center
Fri 05:28:30 PM 32.7044 -84.2042 348° North 219 252 26,000  Level Atlanta Center
Fri 05:29:30 PM 32.7672 -84.2167 350° North 219 252 26,000  Level Atlanta Center
Fri 05:30:30 PM 32.8297 -84.2317 349° North 224 258 26,000  Level Atlanta Center
Fri 05:31:30 PM 32.8922 -84.2442 350° North 224 258 26,000  Level Atlanta Center
Fri 05:32:30 PM 32.9528 -84.2567 350° North 219 252 26,000  Level Atlanta Center
Fri 05:33:30 PM 33.0197 -84.2717 349° North 219 252 26,000  Level Atlanta Center
Fri 05:34:30 PM 33.0803 -84.2842 350° North 219 252 26,000  Level Atlanta Center
Fri 05:35:30 PM 33.1386 -84.2969 350° North 219 252 26,000  Level Atlanta Center
Fri 05:36:30 PM 33.1992 -84.3044 354° North 219 252 26,000  Level Atlanta Center
Fri 05:37:30 PM 33.2597 -84.3194 348° North 219 252 26,000  Level Atlanta Center
Fri 05:38:30 PM 33.3181 -84.3322 350° North 219 252 26,000  Level Atlanta Center
Fri 05:39:30 PM 33.3764 -84.3447 350° North 219 252 26,000  Level Atlanta Center
Fri 05:40:30 PM 33.4369 -84.3600 348° North 219 252 26,000  Level Atlanta Center
Fri 05:41:30 PM 33.4994 -84.3700 352° North 219 252 26,000  Level Atlanta Center
Fri 05:42:30 PM 33.5600 -84.3828 350° North 219 252 26,000  Level Atlanta Center
Fri 05:43:30 PM 33.6164 -84.3956 349° North 219 252 26,000  Level Atlanta Center
Fri 05:44:30 PM 33.6789 -84.4083 350° North 219 252 26,000  Level Atlanta Center
Fri 05:45:30 PM 33.7372 -84.4211 350° North 225 259 26,000  Level Atlanta Center
Fri 05:46:30 PM 33.7978 -84.4339 350° North 219 252 26,000  Level Atlanta Center
Fri 05:47:30 PM 33.8625 -84.4492 349° North 224 258 26,000  Level Atlanta Center
Fri 05:48:30 PM 33.9272 -84.4594 352° North 216 249 26,000  Level Atlanta Center
Fri 05:49:30 PM 33.9856 -84.4747 348° North 222 255 26,000  Level Atlanta Center
Fri 05:50:30 PM 34.0503 -84.4875 351° North 222 255 26,000  Level Atlanta Center
Fri 05:51:30 PM 34.1106 -84.5031 348° North 222 255 26,000  Level Atlanta Center
Fri 05:52:30 PM 34.1753 -84.5133 353° North 236 272 26,000  Level Atlanta Center
Fri 05:53:30 PM 34.2378 -84.5264 350° North 236 272 26,000  Level Atlanta Center
Fri 05:54:30 PM 34.3006 -84.5392 350° North 236 272 26,000  Level Atlanta Center
Fri 05:55:30 PM 34.3650 -84.5547 349° North 231 266 26,000  Level Atlanta Center
Fri 05:56:30 PM 34.4275 -84.5675 350° North 231 266 26,000  Level Atlanta Center
Fri 05:57:30 PM 34.4964 -84.5833 349° North 231 266 26,000  Level Atlanta Center
Fri 05:58:30 PM 34.5589 -84.5961 350° North 231 266 26,000  Level Atlanta Center
Fri 05:59:30 PM 34.6236 -84.6117 349° North 231 266 26,000  Level Atlanta Center
Fri 06:00:30 PM 34.6883 -84.6272 349° North 236 272 26,000  Level Atlanta Center
Fri 06:01:30 PM 34.7528 -84.6406 350° North 236 272 26,000  Level Atlanta Center
Fri 06:02:30 PM 34.8153 -84.6561 348° North 236 272 26,000  Level Atlanta Center
Fri 06:03:30 PM 34.8800 -84.6717 349° North 236 272 26,000  Level Atlanta Center
Fri 06:04:30 PM 34.9467 -84.6825 352° North 236 272 26,000  Level Atlanta Center
Fri 06:05:30 PM 35.0133 -84.6981 349° North 236 272 26,000  Level Atlanta Center
Fri 06:06:30 PM 35.0800 -84.7139 349° North 236 272 26,000  Level Atlanta Center
Fri 06:07:30 PM 35.1489 -84.7297 349° North 236 272 26,000  Level Atlanta Center
Fri 06:08:30 PM 35.2133 -84.7431 350° North 236 272 26,000  Level Atlanta Center
Fri 06:09:30 PM 35.2800 -84.7589 349° North 236 272 26,000  Level Atlanta Center
Fri 06:10:30 PM 35.3469 -84.7719 351° North 236 272 26,000  Level Atlanta Center
Fri 06:11:30 PM 35.4114 -84.7853 350° North 236 272 26,000  Level Atlanta Center
Fri 06:12:30 PM 35.4781 -84.8014 349° North 236 272 26,000  Level Atlanta Center
Fri 06:13:30 PM 35.5428 -84.8147 350° North 236 272 26,000  Level Atlanta Center
Fri 06:14:30 PM 35.6072 -84.8306 349° North 236 272 26,000  Level Atlanta Center
Fri 06:15:30 PM 35.6697 -84.8439 350° North 236 272 26,000  Level Atlanta Center
Fri 06:17:15 PM 35.7750 -84.8664 350° North 232 267 26,000  Level Indianapolis Center
Fri 06:18:17 PM 35.8392 -84.8811 349° North 233 268 26,000  Level Indianapolis Center
Fri 06:19:19 PM 35.9028 -84.8944 350° North 231 266 26,000  Level Indianapolis Center
Fri 06:20:21 PM 35.9750 -84.9108 350° North 227 261 26,000  Level Indianapolis Center
Fri 06:21:23 PM 36.0297 -84.9239 349° North 225 259 26,000  Level Indianapolis Center
Fri 06:22:25 PM 36.1050 -84.9408 350° North 227 261 26,000  Level Indianapolis Center
Fri 06:23:27 PM 36.1681 -84.9556 349° North 230 265 26,000  Level Indianapolis Center
Fri 06:24:29 PM 36.2317 -84.9697 350° North 230 265 26,000  Level Indianapolis Center
Fri 06:25:31 PM 36.2956 -84.9839 350° North 233 268 26,000  Level Indianapolis Center
Fri 06:26:33 PM 36.3583 -84.9983 350° North 228 262 26,000  Level Indianapolis Center
Fri 06:27:35 PM 36.4214 -85.0131 349° North 231 266 26,000  Level Indianapolis Center
Fri 06:28:36 PM 36.4853 -85.0269 350° North 232 267 26,000  Level Indianapolis Center
Fri 06:29:38 PM 36.5608 -85.0450 349° North 230 265 26,000  Level Indianapolis Center
Fri 06:30:40 PM 36.6231 -85.0600 349° North 229 264 26,000  Level Indianapolis Center
Fri 06:31:42 PM 36.6869 -85.0742 350° North 231 266 26,000  Level Indianapolis Center
Fri 06:32:44 PM 36.7508 -85.0889 350° North 232 267 26,000  Level Indianapolis Center
Fri 06:33:46 PM 36.8147 -85.1042 349° North 234 269 26,000  Level Indianapolis Center
Fri 06:34:48 PM 36.8783 -85.1189 350° North 233 268 26,000  Level Indianapolis Center
Fri 06:35:50 PM 36.9397 -85.1325 350° North 226 260 26,000  Level Indianapolis Center
Fri 06:36:52 PM 37.0158 -85.1522 348° North 230 265 26,000  Level Indianapolis Center
Fri 06:37:53 PM 37.0719 -85.1631 351° North 231 266 26,000  Level Indianapolis Center
Fri 06:38:55 PM 37.1456 -85.1806 349° North 230 265 26,000  Level Indianapolis Center
Fri 06:39:57 PM 37.2094 -85.1947 350° North 231 266 26,000  Level Indianapolis Center
Fri 06:40:59 PM 37.2711 -85.2100 349° North 225 259 26,000  Level Indianapolis Center
Fri 06:42:01 PM 37.3350 -85.2242 350° North 229 264 26,000  Level Indianapolis Center
Fri 06:43:03 PM 37.3992 -85.2403 349° North 231 266 26,000  Level Indianapolis Center
Fri 06:44:05 PM 37.4628 -85.2550 350° North 230 265 26,000  Level Indianapolis Center
Fri 06:45:07 PM 37.5264 -85.2694 350° North 230 265 26,000  Level Indianapolis Center
Fri 06:46:08 PM 37.5997 -85.2878 349° North 230 265 26,000  Level Indianapolis Center
Fri 06:47:10 PM 37.6628 -85.3025 350° North 229 264 26,000  Level Indianapolis Center
Fri 06:48:12 PM 37.7250 -85.3175 349° North 228 262 26,000  Level Indianapolis Center
Fri 06:49:14 PM 37.7883 -85.3328 349° North 230 265 26,000  Level Indianapolis Center
Fri 06:50:16 PM 37.8486 -85.3456 350° North 228 262 26,000  Level Indianapolis Center
Fri 06:51:18 PM 37.9114 -85.3608 349° North 229 264 26,000  Level Indianapolis Center
Fri 06:52:20 PM 37.9861 -85.3778 350° North 226 260 26,000  Level Indianapolis Center
Fri 06:53:22 PM 38.0469 -85.3928 349° North 224 258 26,000  Level Indianapolis Center
Fri 06:54:23 PM 38.1089 -85.4078 349° North 225 259 26,000  Level Indianapolis Center
Fri 06:55:25 PM 38.1703 -85.4228 349° North 224 258 26,000  Level Indianapolis Center
Fri 06:56:27 PM 38.2314 -85.4372 349° North 223 257 26,000  Level Indianapolis Center
Fri 06:57:29 PM 38.2925 -85.4517 349° North 222 255 26,000  Level Indianapolis Center
Fri 06:58:31 PM 38.3536 -85.4672 349° North 222 255 26,000  Level Indianapolis Center
Fri 06:59:33 PM 38.4167 -85.4814 350° North 226 260 26,000  Level Indianapolis Center
Fri 07:00:34 PM 38.4906 -85.4997 349° North 224 258 26,000  Level Indianapolis Center
Fri 07:01:36 PM 38.5533 -85.5156 349° North 225 259 26,000  Level Indianapolis Center
Fri 07:02:38 PM 38.6147 -85.5300 350° North 225 259 26,000  Level Indianapolis Center
Fri 07:03:40 PM 38.6772 -85.5447 350° North 228 262 26,000  Level Indianapolis Center
Fri 07:04:41 PM 38.7383 -85.5597 349° North 225 259 26,000  Level Indianapolis Center
Fri 07:05:43 PM 38.7994 -85.5744 349° North 224 258 26,000  Level Indianapolis Center
Fri 07:06:45 PM 38.8600 -85.5897 349° North 224 258 26,000  Level Indianapolis Center
Fri 07:07:47 PM 38.9314 -85.6072 349° North 220 253 26,000  Level Indianapolis Center
Fri 07:08:48 PM 38.9919 -85.6228 349° North 220 253 26,000  Level Indianapolis Center
Fri 07:09:50 PM 39.0517 -85.6375 349° North 221 254 26,000  Level Indianapolis Center
Fri 07:10:52 PM 39.1128 -85.6519 350° North 222 255 26,000  Level Indianapolis Center
Fri 07:11:53 PM 39.1736 -85.6664 350° North 224 258 26,000  Level Indianapolis Center
Fri 07:12:55 PM 39.2333 -85.6808 349° North 220 253 26,000  Level Indianapolis Center
Fri 07:13:57 PM 39.2936 -85.6964 349° North 220 253 26,000  Level Indianapolis Center
Fri 07:14:58 PM 39.3672 -85.7153 349° North 224 258 26,000 -293 Level Indianapolis Center
Fri 07:16:00 PM 39.4275 -85.7294 350° North 221 254 25,400 -774 Descending Indianapolis Center
Fri 07:17:02 PM 39.4914 -85.7447 350° North 232 267 24,400 -677 Descending Indianapolis Center
Fri 07:18:04 PM 39.5542 -85.7614 348° North 232 267 24,000 -195 Descending Indianapolis Center
Fri 07:19:05 PM 39.6150 -85.7772 349° North 227 261 24,000  Level Indianapolis Center
Fri 07:20:07 PM 39.6856 -85.7933 350° North 217 250 24,000 -290 Level Indianapolis Center
Fri 07:21:09 PM 39.7478 -85.8092 349° North 226 260 23,400 -726 Descending Indianapolis Center
Fri 07:22:11 PM 39.8153 -85.8258 349° North 242 278 22,500 -683 Descending Indianapolis Center
Fri 07:23:12 PM 39.8828 -85.8428 349° North 249 287 22,000 -244 Descending Indianapolis Center
Fri 07:24:14 PM 39.9433 -85.8589 348° North 230 265 22,000  Level Indianapolis Center
Fri 07:25:16 PM 40.0025 -85.8736 349° North 220 253 22,000  Level Indianapolis Center
Fri 07:26:17 PM 40.0728 -85.8917 349° North 216 249 22,000  Level Indianapolis Center
Fri 07:27:19 PM 40.1319 -85.9064 349° North 216 249 22,000  Level Indianapolis Center
Fri 07:28:21 PM 40.1889 -85.9206 349° North 212 244 22,000 -49 Level Indianapolis Center
Fri 07:29:22 PM 40.2464 -85.9361 348° North 212 244 21,900 -486 Descending Indianapolis Center
Fri 07:30:12 PM 40.2956 -85.9467 351° North 221 254 21,100 -964 Descending Chicago Center
Fri 07:31:14 PM 40.3603 -85.9636 349° North 236 272 20,100 -1,073 Descending Chicago Center
Fri 07:32:15 PM 40.4383 -85.9831 349° North 239 275 18,900 -1,122 Descending Chicago Center
Fri 07:33:17 PM 40.5036 -86.0003 349° North 240 276 17,800 -976 Descending Chicago Center
Fri 07:34:18 PM 40.5692 -86.0161 350° North 239 275 16,900 -976 Descending Chicago Center
Fri 07:35:20 PM 40.6314 -86.0336 348° North 232 267 15,800 -976 Descending Chicago Center
Fri 07:36:21 PM 40.6903 -86.0483 349° North 222 255 14,900 -927 Descending Chicago Center
Fri 07:37:23 PM 40.7492 -86.0650 348° North 216 249 13,900 -976 Descending Chicago Center
Fri 07:38:24 PM 40.8069 -86.0794 349° North 213 245 12,900 -1,073 Descending Chicago Center
Fri 07:39:26 PM 40.8781 -86.0972 349° North 214 246 11,700 -878 Descending Chicago Center
Fri 07:40:27 PM 40.9386 -86.1133 349° North 220 253 11,100 -439 Descending Chicago Center
Fri 07:41:29 PM 40.9978 -86.1083 North 217 250 10,800 -293 Descending Chicago Center
Fri 07:42:30 PM 41.0581 -86.0903 13° North 220 253 10,500 -439 Descending Chicago Center
Fri 07:43:32 PM 41.1167 -86.0783 North 217 250 9,900 -683 Descending Chicago Center
Fri 07:44:33 PM 41.1742 -86.0700 North 212 244 9,100 -634 Descending Chicago Center
Fri 07:45:35 PM 41.2317 -86.0661 North 208 239 8,600 -634 Descending Chicago Center
Fri 07:46:36 PM 41.2875 -86.0678 359° North 203 234 7,800 -780 Descending Chicago Center
Fri 07:47:38 PM 41.3536 -86.0703 358° North 200 230 7,000 -732 Descending Chicago Center
Fri 07:48:39 PM 41.4103 -86.0731 358° North 201 231 6,300 -732 Descending Chicago Center
Fri 07:49:41 PM 41.4658 -86.0761 358° North 200 230 5,500 -774 Descending Chicago Center
Fri 07:50:43 PM 41.5197 -86.0744 North 198 228 4,700 -878 Descending Chicago Center
Fri 07:51:44 PM 41.5775 -86.0569 13° North 209 241 3,700 -878 Descending Chicago Center
Fri 07:52:46 PM 41.6303 -86.0553 North 201 231 2,900 -484 Descending Chicago Center
Fri 07:53:48 PM 41.6775 -86.0608 355° North 183 211 2,700 -146 Descending Chicago Center
Fri 07:54:49 PM 41.7053 -86.0853 327° Northwest 143 165 2,600  Descending Chicago Center
Fri 07:55:51 PM 41.7089 -86.1281 276° West 111 128 2,700 -48 Climbing Chicago Center
Fri 07:56:53 PM 41.7053 -86.1661 263° West 104 120 2,500 -195 Descending Chicago Center
Fri 07:57:54 PM 41.7064 -86.2006 272° West 99 114 2,300 -293 Descending Chicago Center
Fri 07:58:56 PM 41.7056 -86.2347 268° West 95 109 1,900 -387 Descending Chicago Center
Fri 07:59:58 PM 41.7036 -86.2717 266° West 93 107 1,500 -244 Descending Chicago Center
Fri 08:00:59 PM 41.7033 -86.3036 269° West 93 107 1,400 -98 Descending Chicago Center

Login

Don't have an account? Register now (free) for customized features, flight alerts, and more!